Dallas, Texas
Traffic Map
Current Weather Conditions
Dallas, Texas
Broken Clouds
Broken Clouds
26°
Feels Like: 26°
Wind Chill: 26° Ceiling: 27000
Heat Index: 26° Visibility: 10mi
Dew Point: 16° Wind: 16mph
Humidity: 54% Direction: 170° (S)
Pressure: 29.88in Gusts: 0mph
Raw Report DataKDAL 010053Z 17014KT 10SM BKN270 BKN310 26/16 A2988 RMK AO2 SLP114 T02560156
Traffic Incident Summary
Active as of:
Severity:
Category:
InformationThere was an issue retrieving the traffic information for this location. Please try a different location or try again shortly.
Advertisements
Track Severe Weather on mobile